Time;durP1;ratioP1;P1;durP2;ratioP2;P2;SDS_P1;SDS_P2;PMS_P1;PMS_P2;Temp;Humidity;BMP_temperature;BMP_pressure;BME280_temperature;BME280_humidity;BME280_pressure;Samples;Min_cycle;Max_cycle;Signal;HPM_P1;HPM_P2
2022/08/27 00:00:36;;;;;;;;;;;;;;;15.84;97.06;101482.13;1948339;28;20455;-79
2022/08/27 00:01:33;;;;;;;5.85;2.55;;;;;;;15.73;97.20;101468.72;1948089;29;19914;-79
2022/08/27 00:02:33;;;;;;;6.45;2.88;;;;;;;15.74;95.92;101471.25;1947761;28;20031;-79
2022/08/27 00:03:31;;;;;;;7.18;2.90;;;;;;;15.74;95.79;101465.16;1947983;29;20031;-80
2022/08/27 00:04:29;;;;;;;5.15;2.83;;;;;;;15.71;96.08;101472.28;1947608;29;20042;-80
2022/08/27 00:05:27;;;;;;;5.47;2.58;;;;;;;15.65;97.07;101467.34;1947456;29;20047;-80
2022/08/27 00:06:26;;;;;;;7.93;2.80;;;;;;;15.64;96.27;101470.91;1947471;29;20497;-79
2022/08/27 00:07:23;;;;;;;5.28;2.70;;;;;;;15.54;97.84;101472.34;1939869;29;20067;-79
2022/08/27 00:08:21;;;;;;;4.90;2.45;;;;;;;15.43;99.51;101467.66;1940031;29;20386;-79
2022/08/27 00:09:18;;;;;;;7.57;2.78;;;;;;;15.47;98.03;101476.22;1938875;29;20087;-79
2022/08/27 00:10:21;;;;;;;4.93;2.60;;;;;;;15.41;98.42;101475.63;1939877;29;20032;-79
2022/08/27 00:11:24;;;;;;;6.32;3.20;;;;;;;15.34;98.63;101474.25;1939745;29;20028;-79
2022/08/27 00:12:21;;;;;;;6.05;2.80;;;;;;;15.34;98.27;101468.13;1939938;29;20037;-79
2022/08/27 00:13:19;;;;;;;6.07;3.17;;;;;;;15.34;97.75;101469.00;1947641;29;20035;-80
2022/08/27 00:14:16;;;;;;;5.13;2.85;;;;;;;15.32;97.83;101465.59;1947400;28;20415;-79
2022/08/27 00:15:15;;;;;;;5.35;3.10;;;;;;;15.25;99.68;101469.47;1947262;29;20072;-80
2022/08/27 00:16:16;;;;;;;6.47;3.05;;;;;;;15.19;99.42;101476.75;1947747;29;20470;-80
2022/08/27 00:17:13;;;;;;;6.18;3.05;;;;;;;15.19;98.71;101471.50;1947813;29;20347;-80
2022/08/27 00:18:11;;;;;;;7.68;3.25;;;;;;;15.16;98.78;101471.63;1947912;29;20349;-80
2022/08/27 00:19:11;;;;;;;9.05;3.42;;;;;;;15.10;99.88;101473.75;1947085;29;20039;-79
2022/08/27 00:20:17;;;;;;;;;;;;;;;15.01;100.00;101467.19;1947879;29;20133;-79
2022/08/27 00:21:16;;;;;;;5.65;3.30;;;;;;;14.98;100.00;101467.34;1947068;28;19958;-79
2022/08/27 00:22:14;;;;;;;9.60;3.78;;;;;;;14.96;100.00;101467.44;1947351;29;20050;-79
2022/08/27 00:23:11;;;;;;;10.93;3.47;;;;;;;14.99;99.32;101467.25;1947663;29;20347;-79
2022/08/27 00:24:11;;;;;;;7.32;2.97;;;;;;;14.97;99.71;101463.00;1947836;29;20035;-79
2022/08/27 00:25:10;;;;;;;8.27;3.83;;;;;;;14.94;99.70;101461.38;1947699;29;20114;-79
2022/08/27 00:26:10;;;;;;;5.32;2.97;;;;;;;14.85;100.00;101464.50;1947467;29;20043;-79
2022/08/27 00:27:08;;;;;;;6.05;3.35;;;;;;;14.83;100.00;101463.72;1947808;29;20035;-78
2022/08/27 00:28:05;;;;;;;8.45;3.20;;;;;;;14.83;100.00;101468.97;1947086;28;20050;-79
2022/08/27 00:29:04;;;;;;;8.75;3.38;;;;;;;14.84;100.00;101463.63;1946970;28;20494;-80
2022/08/27 00:30:05;;;;;;;6.53;3.20;;;;;;;14.82;100.00;101462.03;1947141;29;20050;-80
2022/08/27 00:31:03;;;;;;;7.78;3.08;;;;;;;14.77;100.00;101459.63;1947745;29;20043;-81
2022/08/27 00:32:01;;;;;;;6.38;3.33;;;;;;;14.74;99.88;101457.09;1947679;29;20027;-80
2022/08/27 00:32:58;;;;;;;10.25;3.30;;;;;;;14.70;100.00;101463.44;1947584;29;20510;-80
2022/08/27 00:33:56;;;;;;;7.13;3.20;;;;;;;14.66;100.00;101458.38;1947512;28;20031;-80
2022/08/27 00:34:54;;;;;;;5.43;3.42;;;;;;;14.62;100.00;101451.56;1939660;29;20039;-79
2022/08/27 00:35:52;;;;;;;6.60;3.22;;;;;;;14.59;100.00;101449.09;1939488;29;20379;-79
2022/08/27 00:36:52;;;;;;;9.85;3.33;;;;;;;14.54;100.00;101456.31;1946856;29;20038;-79
2022/08/27 00:37:49;;;;;;;10.85;3.47;;;;;;;14.50;100.00;101457.41;1947656;29;20093;-80
2022/08/27 00:38:48;;;;;;;8.10;3.63;;;;;;;14.46;100.00;101448.84;1947257;29;20027;-79
2022/08/27 00:39:45;;;;;;;8.20;3.58;;;;;;;14.44;100.00;101460.34;1939576;29;20427;-79
2022/08/27 00:40:43;;;;;;;6.40;3.42;;;;;;;14.42;100.00;101460.41;1939705;29;20027;-79
2022/08/27 00:41:42;;;;;;;8.20;3.35;;;;;;;14.41;100.00;101464.81;1946748;29;20031;-78
2022/08/27 00:42:41;;;;;;;7.95;3.20;;;;;;;14.38;100.00;101456.25;1947559;29;20039;-78
2022/08/27 00:43:52;;;;;;;10.00;3.75;;;;;;;14.35;100.00;101457.25;1947226;28;20435;-78
2022/08/27 00:44:50;;;;;;;7.75;3.85;;;;;;;14.31;100.00;101453.06;1947167;29;20027;-78
2022/08/27 00:45:47;;;;;;;5.90;3.42;;;;;;;14.29;100.00;101458.41;1947632;29;20035;-79
2022/08/27 00:46:51;;;;;;;6.55;3.50;;;;;;;14.26;100.00;101461.16;1946558;28;20038;-78
2022/08/27 00:47:56;;;;;;;7.05;3.38;;;;;;;14.22;100.00;101458.75;1947600;29;20042;-78
2022/08/27 00:49:04;;;;;;;8.98;3.35;;;;;;;14.22;100.00;101458.75;1947459;29;20404;-79
2022/08/27 00:50:11;;;;;;;10.18;3.22;;;;;;;14.21;100.00;101462.31;1947575;29;20039;-77
2022/08/27 00:51:09;;;;;;;8.52;3.35;;;;;;;14.21;100.00;101462.31;1947599;29;20053;-77
2022/08/27 00:52:27;;;;;;;9.35;3.40;;;;;;;14.22;100.00;101462.25;1947364;29;20023;-78
2022/08/27 00:53:32;;;;;;;5.70;3.28;;;;;;;14.22;100.00;101464.00;1947641;29;20058;-78
2022/08/27 00:54:30;;;;;;;7.70;3.72;;;;;;;14.21;100.00;101457.91;1947387;28;20062;-78
2022/08/27 00:55:34;;;;;;;6.80;3.75;;;;;;;14.22;100.00;101464.88;1947556;29;20035;-79
2022/08/27 00:56:39;;;;;;;6.00;3.10;;;;;;;14.22;100.00;101469.25;1947390;29;20031;-79
2022/08/27 00:57:40;;;;;;;8.93;3.92;;;;;;;14.20;100.00;101460.63;1947045;29;20098;-79
2022/08/27 00:58:50;;;;;;;8.43;3.72;;;;;;;14.19;100.00;101465.00;1946901;29;20035;-79
2022/08/27 00:59:48;;;;;;;6.20;3.80;;;;;;;14.14;100.00;101465.22;1947558;29;20110;-79
2022/08/27 01:00:46;;;;;;;5.50;3.42;;;;;;;14.15;100.00;101464.31;1947376;28;20031;-80
2022/08/27 01:03:02;;;;;;;7.32;3.75;;;;;;;14.10;100.00;101463.66;1947361;29;20035;-78
2022/08/27 01:04:04;;;;;;;6.53;3.40;;;;;;;14.10;100.00;101453.16;1947378;29;20034;-78
2022/08/27 01:05:10;;;;;;;7.15;4.03;;;;;;;14.07;100.00;101453.34;1947099;29;20042;-78
2022/08/27 01:06:13;;;;;;;10.30;4.15;;;;;;;14.03;100.00;101454.41;1947373;29;20048;-79
2022/08/27 01:07:13;;;;;;;4.78;3.70;;;;;;;14.02;100.00;101457.94;1947340;29;20129;-79
2022/08/27 01:08:17;;;;;;;7.88;3.72;;;;;;;13.98;100.00;101462.47;1947404;29;20039;-80
2022/08/27 01:09:16;;;;;;;8.60;3.90;;;;;;;14.00;100.00;101452.75;1947406;29;20070;-80
2022/08/27 01:10:18;;;;;;;7.18;3.60;;;;;;;14.03;100.00;101457.84;1946680;29;20027;-80
2022/08/27 01:11:17;;;;;;;10.63;3.90;;;;;;;14.02;100.00;101455.31;1946825;28;20035;-78
2022/08/27 01:12:16;;;;;;;6.45;3.90;;;;;;;14.00;100.00;101457.16;1947486;29;20359;-80
2022/08/27 01:13:20;;;;;;;8.07;3.65;;;;;;;13.98;100.00;101448.50;1947349;29;20474;-79
2022/08/27 01:14:18;;;;;;;7.70;3.63;;;;;;;13.95;100.00;101451.25;1939351;29;20098;-80
2022/08/27 01:15:16;;;;;;;8.35;3.85;;;;;;;13.93;100.00;101450.50;1939395;29;20103;-80
2022/08/27 01:16:23;;;;;;;7.30;3.88;;;;;;;13.89;100.00;101447.19;1946929;29;20089;-80
2022/08/27 01:17:21;;;;;;;6.55;4.28;;;;;;;13.85;100.00;101454.31;1947430;29;20350;-77
2022/08/27 01:18:20;;;;;;;9.52;4.40;;;;;;;13.82;100.00;101446.59;1947421;29;20031;-79
2022/08/27 01:19:29;;;;;;;6.80;4.10;;;;;;;13.85;100.00;101449.09;1947334;29;20557;-78
2022/08/27 01:20:37;;;;;;;12.77;4.47;;;;;;;13.83;100.00;101448.31;1947482;29;20042;-78
2022/08/27 01:21:50;;;;;;;12.57;3.78;;;;;;;13.84;100.00;101450.00;1947210;29;20041;-78
2022/08/27 01:23:17;;;;;;;7.45;3.88;;;;;;;13.83;100.00;101450.09;1947362;29;20477;-78
2022/08/27 01:24:34;;;;;;;7.75;4.13;;;;;;;13.80;100.00;101451.09;1947376;29;20046;-80
2022/08/27 01:25:32;;;;;;;8.82;3.85;;;;;;;13.80;100.00;101452.84;1939290;29;20038;-77
2022/08/27 01:26:30;;;;;;;10.43;3.95;;;;;;;13.78;100.00;101450.28;1939233;29;20035;-78
2022/08/27 01:27:33;;;;;;;8.15;4.13;;;;;;;13.77;100.00;101449.47;1946007;29;20039;-80
2022/08/27 01:28:33;;;;;;;7.20;4.00;;;;;;;13.77;100.00;101448.59;1946632;29;20027;-77
2022/08/27 01:29:31;;;;;;;7.82;4.13;;;;;;;13.74;100.00;101451.34;1947272;28;20051;-77
2022/08/27 01:30:30;;;;;;;11.25;4.32;;;;;;;13.70;100.00;101447.16;1946071;28;20443;-79
2022/08/27 01:31:28;;;;;;;6.75;4.07;;;;;;;13.70;100.00;101447.16;1941432;29;20087;-78
2022/08/27 01:32:30;;;;;;;10.52;4.35;;;;;;;13.70;100.00;101442.78;1945103;28;20381;-78
2022/08/27 01:33:28;;;;;;;10.07;4.50;;;;;;;13.70;100.00;101447.16;1945418;29;20078;-78
2022/08/27 01:34:25;;;;;;;8.25;4.05;;;;;;;13.67;100.00;101439.44;1946969;29;20039;-79
2022/08/27 01:35:24;;;;;;;7.63;4.00;;;;;;;13.67;100.00;101447.31;1946965;28;20049;-78
2022/08/27 01:36:21;;;;;;;9.07;4.30;;;;;;;13.67;100.00;101452.56;1943939;29;20375;-78
2022/08/27 01:37:20;;;;;;;6.45;3.80;;;;;;;13.63;100.00;101447.47;1944107;28;20110;-77
2022/08/27 01:38:20;;;;;;;8.82;4.50;;;;;;;13.61;100.00;101451.91;1947236;29;20039;-78
2022/08/27 01:39:17;;;;;;;8.35;4.32;;;;;;;13.60;100.00;101442.34;1946790;28;20045;-78
2022/08/27 01:40:18;;;;;;;10.93;4.20;;;;;;;13.59;100.00;101451.13;1947318;29;20031;-79
2022/08/27 01:41:15;;;;;;;6.55;4.50;;;;;;;13.57;100.00;101445.13;1944835;28;20110;-79
2022/08/27 01:42:26;;;;;;;6.72;3.90;;;;;;;13.54;100.00;101447.88;1939208;29;20102;-79
2022/08/27 01:43:23;;;;;;;7.57;4.20;;;;;;;13.50;100.00;101446.31;1946639;28;20039;-78
2022/08/27 01:44:21;;;;;;;7.75;4.10;;;;;;;13.49;100.00;101449.84;1947124;29;20028;-79
2022/08/27 01:45:44;;;;;;;8.65;4.18;;;;;;;13.46;100.00;101450.81;1946815;28;20039;-79
2022/08/27 01:46:41;;;;;;;9.50;4.10;;;;;;;13.43;100.00;101450.09;1947112;28;20331;-79
2022/08/27 01:47:40;;;;;;;8.88;4.53;;;;;;;13.41;100.00;101446.69;1946730;29;20062;-79
2022/08/27 01:48:37;;;;;;;7.00;4.53;;;;;;;13.39;100.00;101444.97;1947064;28;20031;-79
2022/08/27 01:49:34;;;;;;;9.95;4.70;;;;;;;13.39;100.00;101450.22;1946512;29;20031;-79
2022/08/27 01:50:36;;;;;;;7.47;4.63;;;;;;;13.38;100.00;101442.44;1946976;28;20043;-78
2022/08/27 01:51:34;;;;;;;7.60;4.57;;;;;;;13.35;100.00;101448.66;1947068;29;20446;-79
2022/08/27 01:52:31;;;;;;;9.02;4.53;;;;;;;13.34;100.00;101446.97;1939081;29;20036;-79
2022/08/27 01:53:29;;;;;;;7.63;4.60;;;;;;;13.33;100.00;101442.66;1939072;29;20377;-78
2022/08/27 01:54:27;;;;;;;6.70;4.68;;;;;;;13.34;100.00;101448.75;1938346;29;20060;-78
2022/08/27 01:55:25;;;;;;;7.25;4.63;;;;;;;13.32;100.00;101446.19;1939037;29;20487;-80
2022/08/27 01:56:24;;;;;;;8.60;4.65;;;;;;;13.31;100.00;101444.47;1946621;29;20035;-78
2022/08/27 01:57:22;;;;;;;12.82;5.60;;;;;;;13.30;100.00;101450.63;1946636;29;20077;-79
2022/08/27 01:58:26;;;;;;;8.55;4.88;;;;;;;13.28;100.00;101447.25;1946754;28;20355;-79
2022/08/27 01:59:24;;;;;;;8.02;4.40;;;;;;;13.26;100.00;101442.06;1947033;29;20363;-78
2022/08/27 02:00:30;;;;;;;6.70;4.63;;;;;;;13.27;100.00;101450.78;1946844;29;20110;-78
2022/08/27 02:01:27;;;;;;;10.68;4.50;;;;;;;13.23;100.00;101443.97;1947021;29;20571;-78
2022/08/27 02:02:25;;;;;;;7.80;4.50;;;;;;;13.21;100.00;101440.56;1946520;29;20122;-78
2022/08/27 02:03:24;;;;;;;11.18;4.47;;;;;;;13.19;100.00;101445.03;1946549;29;20055;-78
2022/08/27 02:04:22;;;;;;;9.43;4.82;;;;;;;13.16;100.00;101443.38;1946382;29;20047;-78
2022/08/27 02:05:20;;;;;;;9.93;4.72;;;;;;;13.14;100.00;101448.69;1947143;29;20050;-79
2022/08/27 02:06:18;;;;;;;8.43;5.05;;;;;;;13.12;100.00;101442.69;1938918;29;20043;-79
2022/08/27 02:07:16;;;;;;;9.38;4.90;;;;;;;13.08;100.00;101448.97;1939250;29;20051;-79
2022/08/27 02:08:16;;;;;;;10.20;5.30;;;;;;;13.07;100.00;101439.41;1938222;29;20083;-78
2022/08/27 02:09:14;;;;;;;7.15;5.03;;;;;;;13.05;100.00;101440.38;1939134;29;20079;-79
2022/08/27 02:10:18;;;;;;;11.23;5.38;;;;;;;13.04;100.00;101436.94;1946344;28;20039;-78
2022/08/27 02:11:16;;;;;;;9.27;4.47;;;;;;;13.03;100.00;101437.00;1946918;29;20466;-79
2022/08/27 02:12:13;;;;;;;11.43;5.15;;;;;;;13.02;100.00;101436.13;1946676;29;20045;-78
2022/08/27 02:13:12;;;;;;;7.43;4.82;;;;;;;13.00;100.00;101438.81;1946960;29;20043;-78
2022/08/27 02:14:10;;;;;;;10.30;5.47;;;;;;;12.98;100.00;101434.56;1946860;29;20039;-78
2022/08/27 02:15:10;;;;;;;8.23;5.30;;;;;;;12.98;100.00;101438.03;1938610;29;20031;-78
2022/08/27 02:16:08;;;;;;;11.13;5.40;;;;;;;12.97;100.00;101433.69;1939066;29;20044;-78
2022/08/27 02:17:05;;;;;;;9.60;4.85;;;;;;;12.96;100.00;101442.50;1938392;29;20522;-79
2022/08/27 02:18:04;;;;;;;8.18;4.68;;;;;;;12.96;100.00;101436.38;1938737;29;20028;-78
2022/08/27 02:19:03;;;;;;;6.75;4.55;;;;;;;12.94;100.00;101439.09;1945992;29;20082;-79
2022/08/27 02:20:01;;;;;;;8.13;4.82;;;;;;;12.95;100.00;101432.94;1946905;29;20046;-79
2022/08/27 02:20:59;;;;;;;9.80;4.88;;;;;;;12.96;100.00;101439.00;1946638;29;20115;-79
2022/08/27 02:21:59;;;;;;;10.70;5.30;;;;;;;12.94;100.00;101439.09;1946958;29;20027;-79
2022/08/27 02:22:57;;;;;;;8.05;5.05;;;;;;;12.95;100.00;101437.31;1946666;29;20055;-79
2022/08/27 02:23:55;;;;;;;18.23;4.90;;;;;;;12.94;100.00;101428.63;1946829;29;20031;-79
2022/08/27 02:24:52;;;;;;;10.60;4.85;;;;;;;12.95;100.00;101439.94;1946058;29;20041;-79
2022/08/27 02:25:50;;;;;;;8.32;5.00;;;;;;;12.94;100.00;101428.63;1946343;29;20098;-78
2022/08/27 02:26:47;;;;;;;9.65;4.85;;;;;;;12.92;100.00;101433.06;1938718;29;20436;-78
2022/08/27 02:27:47;;;;;;;7.93;5.25;;;;;;;12.91;100.00;101433.13;1938739;29;20428;-79
2022/08/27 02:28:44;;;;;;;10.77;5.15;;;;;;;12.88;100.00;101437.59;1945484;28;20058;-79
2022/08/27 02:29:42;;;;;;;10.43;5.13;;;;;;;12.88;100.00;101434.97;1946518;29;20130;-79
2022/08/27 02:30:39;;;;;;;7.80;5.35;;;;;;;12.88;100.00;101429.72;1939599;29;20046;-79
2022/08/27 02:31:37;;;;;;;8.55;5.47;;;;;;;12.87;100.00;101428.00;1946013;29;20359;-78
2022/08/27 02:32:34;;;;;;;11.05;5.15;;;;;;;12.86;100.00;101428.94;1947001;29;20046;-79
2022/08/27 02:33:32;;;;;;;9.07;5.05;;;;;;;12.86;100.00;101426.31;1946610;29;20031;-78
2022/08/27 02:34:29;;;;;;;8.68;4.95;;;;;;;12.84;100.00;101425.53;1946105;29;20059;-79
2022/08/27 02:35:30;;;;;;;10.30;5.22;;;;;;;12.84;100.00;101427.31;1946399;29;20062;-79
2022/08/27 02:36:27;;;;;;;10.48;5.75;;;;;;;12.81;100.00;101427.44;1946912;29;20137;-78
2022/08/27 02:37:25;;;;;;;12.98;5.15;;;;;;;12.79;100.00;101430.09;1938756;29;20376;-79
2022/08/27 02:38:23;;;;;;;8.90;5.00;;;;;;;12.78;100.00;101423.19;1938828;29;20039;-79
2022/08/27 02:39:20;;;;;;;16.17;5.55;;;;;;;12.77;100.00;101426.72;1945894;28;20412;-79
2022/08/27 02:40:21;;;;;;;10.65;5.75;;;;;;;12.76;100.00;101425.00;1946821;29;20043;-79
2022/08/27 02:41:19;;;;;;;10.27;5.55;;;;;;;12.75;100.00;101429.41;1946722;29;20106;-79
2022/08/27 02:42:16;;;;;;;11.85;5.55;;;;;;;12.72;100.00;101420.81;1946852;29;20487;-79
2022/08/27 02:43:13;;;;;;;8.73;5.80;;;;;;;12.74;100.00;101429.47;1946951;29;20057;-79
2022/08/27 02:44:11;;;;;;;12.90;5.43;;;;;;;12.72;100.00;101429.53;1946613;28;20060;-79
2022/08/27 02:45:13;;;;;;;10.68;6.15;;;;;;;12.71;100.00;101424.34;1946895;29;20046;-77
2022/08/27 02:46:11;;;;;;;10.35;5.63;;;;;;;12.70;100.00;101427.88;1938374;29;20118;-79
2022/08/27 02:47:09;;;;;;;10.63;6.00;;;;;;;12.68;100.00;101427.94;1938736;29;20035;-78
2022/08/27 02:48:07;;;;;;;11.43;5.68;;;;;;;12.68;100.00;101425.34;1945508;29;20062;-78
2022/08/27 02:49:05;;;;;;;10.13;6.13;;;;;;;12.66;100.00;101429.75;1946400;29;20042;-78
2022/08/27 02:50:04;;;;;;;8.43;5.72;;;;;;;12.67;100.00;101430.63;1946533;29;20531;-78
2022/08/27 02:51:04;;;;;;;10.27;6.07;;;;;;;12.66;100.00;101426.31;1946656;29;20056;-78
2022/08/27 02:52:03;;;;;;;15.73;6.10;;;;;;;12.64;100.00;101429.00;1946729;28;20360;-78
2022/08/27 02:53:02;;;;;;;13.00;6.28;;;;;;;12.65;100.00;101429.81;1946825;29;20027;-79
2022/08/27 02:54:01;;;;;;;11.77;5.97;;;;;;;12.62;100.00;101426.44;1946753;29;20031;-79
2022/08/27 02:54:59;;;;;;;13.50;6.47;;;;;;;12.64;100.00;101423.75;1946681;29;20290;-79
2022/08/27 02:55:56;;;;;;;9.82;6.15;;;;;;;12.64;100.00;101431.63;1946733;29;20058;-77
2022/08/27 02:56:54;;;;;;;9.90;5.95;;;;;;;12.63;100.00;101429.91;1946795;29;20031;-77
2022/08/27 02:57:51;;;;;;;14.48;6.50;;;;;;;12.64;100.00;101426.38;1946716;29;20443;-78
2022/08/27 02:58:48;;;;;;;10.48;5.97;;;;;;;12.64;100.00;101425.50;1946715;28;20118;-78
2022/08/27 02:59:46;;;;;;;9.45;6.03;;;;;;;12.62;100.00;101423.81;1946239;29;20039;-78
2022/08/27 03:00:44;;;;;;;10.32;6.03;;;;;;;12.65;100.00;101429.81;1946070;29;20039;-78
2022/08/27 03:01:42;;;;;;;13.18;6.20;;;;;;;12.65;100.00;101432.44;1946725;29;20027;-79
2022/08/27 03:02:39;;;;;;;9.23;6.20;;;;;;;12.64;100.00;101430.75;1946541;29;20102;-78
2022/08/27 03:03:37;;;;;;;13.48;6.53;;;;;;;12.62;100.00;101439.53;1946702;29;20066;-78
2022/08/27 03:04:34;;;;;;;10.70;6.07;;;;;;;12.62;100.00;101434.28;1946440;29;20466;-78
2022/08/27 03:05:32;;;;;;;11.25;6.38;;;;;;;12.62;100.00;101434.28;1946253;29;20035;-78
2022/08/27 03:06:30;;;;;;;13.60;6.50;;;;;;;12.62;100.00;101426.44;1946115;29;20074;-78
2022/08/27 03:07:27;;;;;;;13.30;6.75;;;;;;;12.64;100.00;101430.75;1938753;29;20203;-79
2022/08/27 03:08:27;;;;;;;9.93;6.07;;;;;;;12.65;100.00;101427.22;1938668;29;20078;-78
2022/08/27 03:09:24;;;;;;;16.27;6.78;;;;;;;12.66;100.00;101428.94;1946123;28;20050;-79
2022/08/27 03:10:21;;;;;;;8.77;6.25;;;;;;;12.65;100.00;101427.22;1947686;29;20463;-79
2022/08/27 03:11:22;;;;;;;11.55;6.15;;;;;;;12.65;100.00;101425.44;1948243;28;20412;-78
2022/08/27 03:12:20;;;;;;;8.35;6.50;;;;;;;12.67;100.00;101430.63;1948379;29;20038;-79
2022/08/27 03:13:18;;;;;;;9.77;6.28;;;;;;;12.67;100.00;101423.63;1940257;29;20039;-78
2022/08/27 03:14:15;;;;;;;11.65;6.20;;;;;;;12.69;100.00;101434.88;1940368;29;20045;-78
2022/08/27 03:15:18;;;;;;;10.60;6.30;;;;;;;12.71;100.00;101421.72;1947482;29;20449;-78
2022/08/27 03:16:15;;;;;;;8.02;5.95;;;;;;;12.72;100.00;101431.28;1948161;29;20451;-78
2022/08/27 03:18:31;;;;;;;7.63;5.95;;;;;;;12.73;100.00;101425.16;1941928;29;20031;-79
2022/08/27 03:19:28;;;;;;;9.80;6.18;;;;;;;12.74;100.00;101426.84;1948025;29;20046;-80
2022/08/27 03:20:26;;;;;;;10.90;6.00;;;;;;;12.74;100.00;101432.91;1947771;29;20039;-79
2022/08/27 03:21:25;;;;;;;13.40;6.10;;;;;;;12.75;100.00;101434.63;1940089;29;20031;-78
2022/08/27 03:22:22;;;;;;;10.52;6.43;;;;;;;12.75;100.00;101433.78;1940417;29;20074;-79
2022/08/27 03:23:25;;;;;;;12.90;6.63;;;;;;;12.76;100.00;101430.22;1947421;28;20038;-79
2022/08/27 03:24:22;;;;;;;12.05;6.32;;;;;;;12.73;100.00;101425.97;1948130;29;20174;-79
2022/08/27 03:25:20;;;;;;;9.73;6.18;;;;;;;12.73;100.00;101428.59;1948091;29;20415;-78
2022/08/27 03:26:19;;;;;;;10.10;6.70;;;;;;;12.75;100.00;101428.53;1948244;29;20371;-80
2022/08/27 03:27:16;;;;;;;11.50;6.55;;;;;;;12.75;100.00;101429.41;1947995;29;20514;-78
2022/08/27 03:28:19;;;;;;;11.88;7.10;;;;;;;12.75;100.00;101433.78;1947732;29;20094;-80
2022/08/27 03:29:16;;;;;;;11.48;6.75;;;;;;;12.74;100.00;101426.84;1939608;29;20524;-81
2022/08/27 03:30:18;;;;;;;13.23;6.60;;;;;;;12.74;100.00;101432.06;1932642;29;20034;-78
2022/08/27 03:31:25;;;;;;;11.35;7.03;;;;;;;12.75;100.00;101431.16;1939897;29;20053;-78
2022/08/27 03:32:23;;;;;;;11.45;6.95;;;;;;;12.74;100.00;101427.66;1948120;29;20031;-79
2022/08/27 03:33:21;;;;;;;12.63;6.72;;;;;;;12.73;100.00;101430.38;1940026;29;20069;-79
2022/08/27 03:34:18;;;;;;;13.60;7.18;;;;;;;12.75;100.00;101433.78;1939986;29;20040;-79
2022/08/27 03:35:18;;;;;;;12.07;7.03;;;;;;;12.75;100.00;101428.53;1947380;29;20390;-79
2022/08/27 03:36:15;;;;;;;14.65;7.50;;;;;;;12.74;100.00;101427.66;1947892;29;20032;-79
2022/08/27 03:37:13;;;;;;;11.10;7.07;;;;;;;12.75;100.00;101424.16;1948197;29;20035;-79
2022/08/27 03:38:10;;;;;;;16.63;7.60;;;;;;;12.77;100.00;101426.72;1947846;29;20039;-79
2022/08/27 03:39:08;;;;;;;13.18;7.43;;;;;;;12.76;100.00;101427.59;1948093;29;20466;-79
2022/08/27 03:40:07;;;;;;;12.77;7.35;;;;;;;12.77;100.00;101431.94;1947804;29;20035;-80
2022/08/27 03:41:06;;;;;;;12.10;7.40;;;;;;;12.77;100.00;101429.34;1947616;29;20027;-79
2022/08/27 03:42:03;;;;;;;12.98;7.32;;;;;;;12.77;100.00;101431.09;1947571;29;20046;-79
2022/08/27 03:43:01;;;;;;;14.40;7.25;;;;;;;12.78;100.00;101427.53;1948141;29;20412;-80
2022/08/27 03:43:58;;;;;;;15.18;6.95;;;;;;;12.78;100.00;101428.41;1939941;29;20093;-79
2022/08/27 03:44:56;;;;;;;11.25;7.55;;;;;;;12.79;100.00;101432.72;1940136;29;20037;-78
2022/08/27 03:45:54;;;;;;;12.65;7.18;;;;;;;12.79;100.00;101430.09;1947134;29;20034;-78
2022/08/27 03:46:52;;;;;;;11.60;7.00;;;;;;;12.80;100.00;101429.19;1948140;29;20046;-79
2022/08/27 03:47:50;;;;;;;17.92;7.47;;;;;;;12.79;100.00;101437.97;1940020;29;20367;-78
2022/08/27 03:48:47;;;;;;;10.95;7.10;;;;;;;12.77;100.00;101437.19;1940015;29;20119;-79
2022/08/27 03:49:45;;;;;;;14.98;7.85;;;;;;;12.79;100.00;101440.59;1939320;29;20039;-79
2022/08/27 03:50:45;;;;;;;13.10;7.60;;;;;;;12.80;100.00;101436.22;1939767;29;20087;-80
2022/08/27 03:51:43;;;;;;;14.57;7.70;;;;;;;12.80;100.00;101437.03;1939539;29;20062;-79
2022/08/27 03:52:40;;;;;;;12.75;6.95;;;;;;;12.82;100.00;101435.22;1939992;29;20036;-80
2022/08/27 03:53:42;;;;;;;14.98;7.25;;;;;;;12.83;100.00;101436.91;1947135;29;20043;-79
2022/08/27 03:54:40;;;;;;;9.90;7.15;;;;;;;12.84;100.00;101430.78;1947761;29;20050;-79
2022/08/27 03:55:40;;;;;;;14.52;7.45;;;;;;;12.84;100.00;101438.63;1947923;29;20031;-79
2022/08/27 03:56:41;;;;;;;11.27;7.13;;;;;;;12.85;100.00;101429.84;1939665;29;20031;-79
2022/08/27 03:57:41;;;;;;;14.00;6.93;;;;;;;12.84;100.00;101432.53;1940102;29;20064;-80
2022/08/27 03:58:38;;;;;;;12.52;7.18;;;;;;;12.83;100.00;101431.69;1939705;29;20052;-80
2022/08/27 03:59:36;;;;;;;12.88;7.22;;;;;;;12.84;100.00;101433.41;1932389;29;20036;-80
2022/08/27 04:00:35;;;;;;;11.48;7.10;;;;;;;12.85;100.00;101429.00;1939767;29;20081;-79
2022/08/27 04:01:33;;;;;;;11.90;7.43;;;;;;;12.84;100.00;101428.16;1946969;29;20066;-78
2022/08/27 04:02:30;;;;;;;14.18;7.60;;;;;;;12.84;100.00;101428.16;1939911;29;20057;-79
2022/08/27 04:03:27;;;;;;;14.10;7.47;;;;;;;12.86;100.00;101426.31;1939811;29;20433;-80
2022/08/27 04:04:25;;;;;;;11.35;7.43;;;;;;;12.86;100.00;101431.56;1947041;29;20049;-79
2022/08/27 04:05:22;;;;;;;9.80;6.82;;;;;;;12.86;100.00;101431.56;1947795;29;20046;-80
2022/08/27 04:06:20;;;;;;;11.40;7.35;;;;;;;12.88;100.00;101434.09;1947921;29;20450;-80
2022/08/27 04:07:17;;;;;;;14.88;7.32;;;;;;;12.86;100.00;101431.56;1947760;29;20465;-80
2022/08/27 04:08:16;;;;;;;14.57;7.40;;;;;;;12.87;100.00;101435.03;1947874;29;20031;-80
2022/08/27 04:09:13;;;;;;;10.80;6.80;;;;;;;12.86;100.00;101431.56;1947397;29;20371;-79
2022/08/27 04:10:14;;;;;;;17.77;7.97;;;;;;;12.89;100.00;101433.19;1947406;29;20061;-79
2022/08/27 04:11:11;;;;;;;;;;;;;;;12.81;100.00;101428.28;1948132;29;20415;-79
2022/08/27 04:12:11;;;;;;;9.45;7.00;;;;;;;12.79;100.00;101437.97;1947939;29;19915;-79
2022/08/27 04:13:11;;;;;;;12.75;7.20;;;;;;;12.81;100.00;101430.91;1947720;29;20035;-79
2022/08/27 04:14:09;;;;;;;14.23;7.22;;;;;;;12.82;100.00;101432.59;1947857;29;20117;-80
2022/08/27 04:15:10;;;;;;;14.85;7.47;;;;;;;12.85;100.00;101426.38;1939748;29;20059;-79
2022/08/27 04:16:07;;;;;;;13.80;7.50;;;;;;;12.85;100.00;101435.09;1939943;29;20379;-79
2022/08/27 04:17:05;;;;;;;14.82;7.43;;;;;;;12.85;100.00;101429.00;1947311;29;20042;-78
2022/08/27 04:18:03;;;;;;;11.07;6.90;;;;;;;12.84;100.00;101428.16;1947767;29;20031;-79
2022/08/27 04:19:02;;;;;;;11.60;7.45;;;;;;;12.85;100.00;101429.00;1947660;29;20031;-79
2022/08/27 04:19:59;;;;;;;11.40;7.70;;;;;;;12.83;100.00;101431.69;1947678;29;20359;-79
2022/08/27 04:20:57;;;;;;;13.98;7.65;;;;;;;12.82;100.00;101424.75;1947713;28;20027;-79
2022/08/27 04:22:06;;;;;;;10.98;7.50;;;;;;;12.81;100.00;101428.28;1947695;29;20057;-78
2022/08/27 04:23:04;;;;;;;12.30;7.00;;;;;;;12.78;100.00;101423.19;1947814;29;20023;-78
2022/08/27 04:24:02;;;;;;;17.52;7.90;;;;;;;12.78;100.00;101423.19;1947592;29;20278;-79
2022/08/27 04:25:00;;;;;;;15.15;8.23;;;;;;;12.77;100.00;101429.34;1947602;29;20053;-79
2022/08/27 04:25:57;;;;;;;14.82;8.10;;;;;;;12.77;100.00;101431.09;1947586;29;20035;-78
2022/08/27 04:26:54;;;;;;;11.85;8.10;;;;;;;12.76;100.00;101425.00;1947288;29;20065;-79
2022/08/27 04:27:52;;;;;;;12.02;8.43;;;;;;;12.72;100.00;101424.28;1947144;29;20520;-78
2022/08/27 04:28:50;;;;;;;13.70;8.15;;;;;;;12.71;100.00;101432.19;1947441;28;20030;-79
2022/08/27 04:29:48;;;;;;;14.23;8.90;;;;;;;12.70;100.00;101430.50;1947536;29;20465;-79
2022/08/27 04:30:46;;;;;;;15.13;8.23;;;;;;;12.69;100.00;101431.44;1947366;29;20039;-78
2022/08/27 04:31:43;;;;;;;12.70;7.88;;;;;;;12.68;100.00;101432.31;1947713;29;20038;-78
2022/08/27 04:32:41;;;;;;;11.65;8.38;;;;;;;12.66;100.00;101429.75;1947442;29;20085;-80
2022/08/27 04:33:39;;;;;;;12.07;8.48;;;;;;;12.65;100.00;101424.59;1939745;29;20501;-78
2022/08/27 04:34:37;;;;;;;14.93;8.73;;;;;;;12.65;100.00;101435.06;1939499;29;20047;-80